Time;durP1;ratioP1;P1;durP2;ratioP2;P2;SDS_P1;SDS_P2;PMS_P1;PMS_P2;Temp;Humidity;BMP_temperature;BMP_pressure;BME280_temperature;BME280_humidity;BME280_pressure;Samples;Min_cycle;Max_cycle;Signal;HPM_P1;HPM_P2
2022/01/09 00:01:26;;;;;;;;;;;;;;;;;;5026538;28;19979;-79
2022/01/09 00:03:54;;;;;;;;;;;;;;;;;;5035278;28;20334;-78
2022/01/09 00:06:19;;;;;;;;;;;;;;;;;;5034755;28;19990;-80
2022/01/09 00:08:45;;;;;;;;;;;;;;;;;;5035184;28;20343;-80
2022/01/09 00:11:11;;;;;;;;;;;;;;;;;;5034090;28;19917;-80
2022/01/09 00:13:36;;;;;;;;;;;;;;;;;;5023524;28;19963;-80
2022/01/09 00:16:01;;;;;;;;;;;;;;;;;;5035015;28;20000;-80
2022/01/09 00:18:29;;;;;;;;;;;;;;;;;;5034828;28;20008;-79
2022/01/09 00:20:55;;;;;;;;;;;;;;;;;;5031014;28;19921;-79
2022/01/09 00:23:20;;;;;;;;;;;;;;;;;;5017754;28;19974;-79
2022/01/09 00:25:45;;;;;;;;;;;;;;;;;;5034814;28;19913;-79
2022/01/09 00:28:11;;;;;;;;;;;;;;;;;;5003940;28;19913;-80
2022/01/09 00:30:36;;;;;;;;;;;;;;;;;;5015584;28;19924;-79
2022/01/09 00:33:01;;;;;;;;;;;;;;;;;;5015706;28;19972;-79
2022/01/09 00:35:26;;;;;;;;;;;;;;;;;;4997541;28;19918;-79
2022/01/09 00:37:54;;;;;;;;;;;;;;;;;;5015074;28;19991;-79
2022/01/09 00:40:23;;;;;;;;;;;;;;;;;;5014254;28;19925;-79
2022/01/09 00:43:00;;;;;;;;;;;;;;;;;;5015288;28;20239;-79
2022/01/09 00:45:25;;;;;;;;;;;;;;;;;;5015429;28;19913;-77
2022/01/09 00:47:53;;;;;;;;;;;;;;;;;;5015288;28;19925;-80
2022/01/09 00:50:18;;;;;;;;;;;;;;;;;;4997766;28;20350;-79
2022/01/09 00:52:46;;;;;;;;;;;;;;;;;;4981834;28;19925;-80
2022/01/09 00:55:12;;;;;;;;;;;;;;;;;;5015261;28;20000;-80
2022/01/09 00:57:43;;;;;;;;;;;;;;;;;;5015099;28;19987;-81
2022/01/09 01:00:08;;;;;;;;;;;;;;;;;;5014838;28;20326;-81
2022/01/09 01:02:42;;;;;;;;;;;;;;;;;;5014855;28;20063;-80
2022/01/09 01:05:08;;;;;;;;;;;;;;;;;;4977234;28;20358;-81
2022/01/09 01:07:33;;;;;;;;;;;;;;;;;;4978500;28;19958;-80
2022/01/09 01:09:58;;;;;;;;;;;;;;;;;;4995374;28;19913;-80
2022/01/09 01:12:24;;;;;;;;;;;;;;;;;;5010390;28;19952;-81
2022/01/09 01:14:50;;;;;;;;;;;;;;;;;;5016150;28;19963;-80
2022/01/09 01:17:15;;;;;;;;;;;;;;;;;;5020686;28;19957;-81
2022/01/09 01:19:41;;;;;;;;;;;;;;;;;;5003598;28;19918;-81
2022/01/09 01:22:06;;;;;;;;;;;;;;;;;;5004034;28;19925;-80
2022/01/09 01:24:35;;;;;;;;;;;;;;;;;;5019859;28;19923;-80
2022/01/09 01:27:00;;;;;;;;;;;;;;;;;;5024049;28;19932;-80
2022/01/09 01:29:25;;;;;;;;;;;;;;;;;;5040701;28;19913;-79
2022/01/09 01:31:51;;;;;;;;;;;;;;;;;;5038720;28;19913;-79
2022/01/09 01:34:16;;;;;;;;;;;;;;;;;;5035659;28;19913;-79
2022/01/09 01:36:41;;;;;;;;;;;;;;;;;;5034214;28;19923;-79
2022/01/09 01:39:06;;;;;;;;;;;;;;;;;;5033962;28;19917;-79
2022/01/09 01:41:34;;;;;;;;;;;;;;;;;;5033283;28;19940;-79
2022/01/09 01:44:00;;;;;;;;;;;;;;;;;;5034165;28;19913;-80
2022/01/09 01:46:25;;;;;;;;;;;;;;;;;;5029602;28;20062;-80
2022/01/09 01:48:52;;;;;;;;;;;;;;;;;;5014499;28;19960;-79
2022/01/09 01:51:19;;;;;;;;;;;;;;;;;;5030074;28;20239;-79
2022/01/09 01:53:45;;;;;;;;;;;;;;;;;;5014663;28;19918;-79
2022/01/09 01:56:18;;;;;;;;;;;;;;;;;;5014351;28;19936;-79
2022/01/09 01:58:46;;;;;;;;;;;;;;;;;;5031752;28;19945;-79
2022/01/09 02:01:11;;;;;;;;;;;;;;;;;;5033847;28;19921;-79
2022/01/09 02:03:39;;;;;;;;;;;;;;;;;;5033985;28;19996;-78
2022/01/09 02:06:04;;;;;;;;;;;;;;;;;;5033685;28;19913;-80
2022/01/09 02:08:30;;;;;;;;;;;;;;;;;;5049765;28;20365;-80
2022/01/09 02:10:55;;;;;;;;;;;;;;;;;;5049722;28;19917;-81
2022/01/09 02:13:21;;;;;;;;;;;;;;;;;;5034012;28;19976;-79
2022/01/09 02:15:47;;;;;;;;;;;;;;;;;;5034534;28;19913;-81
2022/01/09 02:18:13;;;;;;;;;;;;;;;;;;5052999;28;19913;-81
2022/01/09 02:20:39;;;;;;;;;;;;;;;;;;5036928;28;19917;-81
2022/01/09 02:23:06;;;;;;;;;;;;;;;;;;5036392;28;20230;-79
2022/01/09 02:25:33;;;;;;;;;;;;;;;;;;5036452;28;20303;-81
2022/01/09 02:27:58;;;;;;;;;;;;;;;;;;5035993;28;19925;-81
2022/01/09 02:30:24;;;;;;;;;;;;;;;;;;5036166;28;19913;-81
2022/01/09 02:32:49;;;;;;;;;;;;;;;;;;5052869;28;19913;-80
2022/01/09 02:35:14;;;;;;;;;;;;;;;;;;5036967;28;19967;-81
2022/01/09 02:37:39;;;;;;;;;;;;;;;;;;5037170;28;19917;-82
2022/01/09 02:40:05;;;;;;;;;;;;;;;;;;5052446;28;19975;-82
2022/01/09 02:42:33;;;;;;;;;;;;;;;;;;5036925;28;19925;-81
2022/01/09 02:44:59;;;;;;;;;;;;;;;;;;5035953;28;20318;-81
2022/01/09 02:47:31;;;;;;;;;;;;;;;;;;5036667;28;19913;-81
2022/01/09 02:50:02;;;;;;;;;;;;;;;;;;5037092;28;19940;-80
2022/01/09 02:52:34;;;;;;;;;;;;;;;;;;5036993;28;20000;-82
2022/01/09 02:55:11;;;;;;;;;;;;;;;;;;5033121;28;19969;-81
2022/01/09 02:57:40;;;;;;;;;;;;;;;;;;5032690;28;20356;-81
2022/01/09 03:00:06;;;;;;;;;;;;;;;;;;5036680;28;20020;-80
2022/01/09 03:02:31;;;;;;;;;;;;;;;;;;5035309;28;19913;-82
2022/01/09 03:04:57;;;;;;;;;;;;;;;;;;5035848;28;20266;-81
2022/01/09 03:07:22;;;;;;;;;;;;;;;;;;5035707;28;20266;-80
2022/01/09 03:09:49;;;;;;;;;;;;;;;;;;5035922;28;19905;-82
2022/01/09 03:12:15;;;;;;;;;;;;;;;;;;5031643;28;19917;-81
2022/01/09 03:14:40;;;;;;;;;;;;;;;;;;5016492;28;20063;-82
2022/01/09 03:17:08;;;;;;;;;;;;;;;;;;5016494;28;20000;-81
2022/01/09 03:19:35;;;;;;;;;;;;;;;;;;5016424;28;19929;-82
2022/01/09 03:22:01;;;;;;;;;;;;;;;;;;5016371;28;19921;-80
2022/01/09 03:24:26;;;;;;;;;;;;;;;;;;5021600;28;19933;-82
2022/01/09 03:26:53;;;;;;;;;;;;;;;;;;5034697;28;19917;-81
2022/01/09 03:29:19;;;;;;;;;;;;;;;;;;5031852;28;19917;-82
2022/01/09 03:31:46;;;;;;;;;;;;;;;;;;5036083;28;20007;-82
2022/01/09 03:34:12;;;;;;;;;;;;;;;;;;5038029;28;19941;-81
2022/01/09 03:36:37;;;;;;;;;;;;;;;;;;5036337;28;19924;-81
2022/01/09 03:39:02;;;;;;;;;;;;;;;;;;5035719;28;19913;-82
2022/01/09 03:41:29;;;;;;;;;;;;;;;;;;5036009;28;19917;-81
2022/01/09 03:43:57;;;;;;;;;;;;;;;;;;5035351;28;19913;-82
2022/01/09 03:46:24;;;;;;;;;;;;;;;;;;5035682;28;19971;-81
2022/01/09 03:48:50;;;;;;;;;;;;;;;;;;5035721;28;20025;-82
2022/01/09 03:51:15;;;;;;;;;;;;;;;;;;5034518;28;19979;-81
2022/01/09 03:53:40;;;;;;;;;;;;;;;;;;5035807;28;19928;-83
2022/01/09 03:56:05;;;;;;;;;;;;;;;;;;5035211;28;19921;-82
2022/01/09 03:58:30;;;;;;;;;;;;;;;;;;5034824;28;20392;-82
2022/01/09 04:00:56;;;;;;;;;;;;;;;;;;5035179;28;20382;-82
2022/01/09 04:03:23;;;;;;;;;;;;;;;;;;5034146;28;19921;-81
2022/01/09 04:05:48;;;;;;;;;;;;;;;;;;5036729;28;20004;-84
2022/01/09 04:08:14;;;;;;;;;;;;;;;;;;5039626;28;19953;-84
2022/01/09 04:10:41;;;;;;;;;;;;;;;;;;5039262;28;20271;-84
2022/01/09 04:13:09;;;;;;;;;;;;;;;;;;5035486;28;19913;-81
2022/01/09 04:15:38;;;;;;;;;;;;;;;;;;5034395;28;19939;-81
2022/01/09 04:18:03;;;;;;;;;;;;;;;;;;5035349;28;19916;-80
2022/01/09 04:20:29;;;;;;;;;;;;;;;;;;5017608;28;19975;-81
2022/01/09 04:22:55;;;;;;;;;;;;;;;;;;5034124;28;19924;-80
2022/01/09 04:25:20;;;;;;;;;;;;;;;;;;5033279;28;19984;-81
2022/01/09 04:27:48;;;;;;;;;;;;;;;;;;5050626;28;19917;-81
2022/01/09 04:30:14;;;;;;;;;;;;;;;;;;5050261;28;20234;-80
2022/01/09 04:32:39;;;;;;;;;;;;;;;;;;5050484;28;19938;-80
2022/01/09 04:35:07;;;;;;;;;;;;;;;;;;5033950;28;19913;-82
2022/01/09 04:37:34;;;;;;;;;;;;;;;;;;5035135;28;19913;-83
2022/01/09 04:39:59;;;;;;;;;;;;;;;;;;5032804;28;19917;-81
2022/01/09 04:42:32;;;;;;;;;;;;;;;;;;5016992;28;19929;-80
2022/01/09 04:44:58;;;;;;;;;;;;;;;;;;5015014;28;20011;-80
2022/01/09 04:47:23;;;;;;;;;;;;;;;;;;5014793;28;19956;-81
2022/01/09 04:49:49;;;;;;;;;;;;;;;;;;5030400;28;19968;-81
2022/01/09 04:52:21;;;;;;;;;;;;;;;;;;5014876;28;20343;-81
2022/01/09 04:54:46;;;;;;;;;;;;;;;;;;5024095;28;19917;-80
2022/01/09 04:57:11;;;;;;;;;;;;;;;;;;5034557;28;19913;-80
2022/01/09 04:59:37;;;;;;;;;;;;;;;;;;5033397;28;19916;-80
2022/01/09 05:02:02;;;;;;;;;;;;;;;;;;5033003;28;19917;-81
2022/01/09 05:04:27;;;;;;;;;;;;;;;;;;5033639;28;20339;-79
2022/01/09 05:06:52;;;;;;;;;;;;;;;;;;5034100;28;20016;-80
2022/01/09 05:09:18;;;;;;;;;;;;;;;;;;5016657;28;19924;-81
2022/01/09 05:11:43;;;;;;;;;;;;;;;;;;5034425;28;19921;-81
2022/01/09 05:14:10;;;;;;;;;;;;;;;;;;5034125;28;20262;-80
2022/01/09 05:16:37;;;;;;;;;;;;;;;;;;5034329;28;19953;-81
2022/01/09 05:19:06;;;;;;;;;;;;;;;;;;5034370;28;19913;-81
2022/01/09 05:21:31;;;;;;;;;;;;;;;;;;5034243;28;19931;-81
2022/01/09 05:23:56;;;;;;;;;;;;;;;;;;5034271;28;20003;-81
2022/01/09 05:26:21;;;;;;;;;;;;;;;;;;5049776;28;19917;-80
2022/01/09 05:28:47;;;;;;;;;;;;;;;;;;5049680;28;19917;-81
2022/01/09 05:31:12;;;;;;;;;;;;;;;;;;5034304;28;20227;-80
2022/01/09 05:33:37;;;;;;;;;;;;;;;;;;5049633;28;19917;-80
2022/01/09 05:36:03;;;;;;;;;;;;;;;;;;5034079;28;20258;-80
2022/01/09 05:38:28;;;;;;;;;;;;;;;;;;5034125;28;20239;-81
2022/01/09 05:40:53;;;;;;;;;;;;;;;;;;5016621;28;20270;-82
2022/01/09 05:43:19;;;;;;;;;;;;;;;;;;5033974;28;20326;-82
2022/01/09 05:45:44;;;;;;;;;;;;;;;;;;5034151;28;20413;-82
2022/01/09 05:48:09;;;;;;;;;;;;;;;;;;5032651;28;19929;-82
2022/01/09 05:50:37;;;;;;;;;;;;;;;;;;5034984;28;19909;-84
2022/01/09 05:53:02;;;;;;;;;;;;;;;;;;5037903;28;19958;-82
2022/01/09 05:55:29;;;;;;;;;;;;;;;;;;5037501;28;20261;-82
2022/01/09 05:57:55;;;;;;;;;;;;;;;;;;5037705;28;19986;-80
2022/01/09 06:00:20;;;;;;;;;;;;;;;;;;5037610;28;19952;-81
2022/01/09 06:02:45;;;;;;;;;;;;;;;;;;5037656;28;19917;-81
2022/01/09 06:05:10;;;;;;;;;;;;;;;;;;5037596;28;19920;-81
2022/01/09 06:07:39;;;;;;;;;;;;;;;;;;5037559;28;19920;-81
2022/01/09 06:10:04;;;;;;;;;;;;;;;;;;5052922;28;20015;-82
2022/01/09 06:12:30;;;;;;;;;;;;;;;;;;5037466;28;20007;-81
2022/01/09 06:14:55;;;;;;;;;;;;;;;;;;5053365;28;19913;-81
2022/01/09 06:17:20;;;;;;;;;;;;;;;;;;5037437;28;19975;-82
2022/01/09 06:19:45;;;;;;;;;;;;;;;;;;5052843;28;20326;-81
2022/01/09 06:22:11;;;;;;;;;;;;;;;;;;5037138;28;19913;-81
2022/01/09 06:24:36;;;;;;;;;;;;;;;;;;5037258;28;19917;-81
2022/01/09 06:27:01;;;;;;;;;;;;;;;;;;5037141;28;19992;-80
2022/01/09 06:29:28;;;;;;;;;;;;;;;;;;5036997;28;20020;-81
2022/01/09 06:31:54;;;;;;;;;;;;;;;;;;5036864;28;19917;-80
2022/01/09 06:34:19;;;;;;;;;;;;;;;;;;5019623;28;19917;-80
2022/01/09 06:36:44;;;;;;;;;;;;;;;;;;5019642;28;19913;-80
2022/01/09 06:39:09;;;;;;;;;;;;;;;;;;5019516;28;20258;-81
2022/01/09 06:41:35;;;;;;;;;;;;;;;;;;5036886;28;20019;-80
2022/01/09 06:44:00;;;;;;;;;;;;;;;;;;5036741;28;19991;-80
2022/01/09 06:46:26;;;;;;;;;;;;;;;;;;5036949;28;20002;-79
2022/01/09 06:48:51;;;;;;;;;;;;;;;;;;5036694;28;19921;-81
2022/01/09 06:51:16;;;;;;;;;;;;;;;;;;5036710;28;19959;-80
2022/01/09 06:53:42;;;;;;;;;;;;;;;;;;5036694;28;19928;-81
2022/01/09 06:56:07;;;;;;;;;;;;;;;;;;5036728;28;19917;-81
2022/01/09 06:58:32;;;;;;;;;;;;;;;;;;5036288;28;20008;-80
2022/01/09 07:00:57;;;;;;;;;;;;;;;;;;5015712;28;19921;-82
2022/01/09 07:03:22;;;;;;;;;;;;;;;;;;4998904;28;19956;-81
2022/01/09 07:05:48;;;;;;;;;;;;;;;;;;5012093;28;19913;-80
2022/01/09 07:08:13;;;;;;;;;;;;;;;;;;5036427;28;19967;-81
2022/01/09 07:10:41;;;;;;;;;;;;;;;;;;5019095;28;19978;-81
2022/01/09 07:13:06;;;;;;;;;;;;;;;;;;5036551;28;20322;-81
2022/01/09 07:15:31;;;;;;;;;;;;;;;;;;5018984;28;19920;-82
2022/01/09 07:17:57;;;;;;;;;;;;;;;;;;5036288;28;19913;-80
2022/01/09 07:20:22;;;;;;;;;;;;;;;;;;5017767;28;20567;-81
2022/01/09 07:22:47;;;;;;;;;;;;;;;;;;5036306;28;19923;-81
2022/01/09 07:25:13;;;;;;;;;;;;;;;;;;5018782;28;20457;-81
2022/01/09 07:27:38;;;;;;;;;;;;;;;;;;5032746;28;20358;-81
2022/01/09 07:30:06;;;;;;;;;;;;;;;;;;5035141;28;19925;-82
2022/01/09 07:32:33;;;;;;;;;;;;;;;;;;5035664;28;20272;-82
2022/01/09 07:34:58;;;;;;;;;;;;;;;;;;5036203;28;19913;-81
2022/01/09 07:37:25;;;;;;;;;;;;;;;;;;5036105;28;20239;-82
2022/01/09 07:39:50;;;;;;;;;;;;;;;;;;5036111;28;19921;-82
2022/01/09 07:42:16;;;;;;;;;;;;;;;;;;5036561;28;19917;-80
2022/01/09 07:44:43;;;;;;;;;;;;;;;;;;5036568;28;20285;-81
2022/01/09 07:47:08;;;;;;;;;;;;;;;;;;5035840;28;19996;-81
2022/01/09 07:49:33;;;;;;;;;;;;;;;;;;5035737;28;19956;-82
2022/01/09 07:51:59;;;;;;;;;;;;;;;;;;5051340;28;20019;-82
2022/01/09 07:54:26;;;;;;;;;;;;;;;;;;5035319;28;19967;-81
2022/01/09 07:56:51;;;;;;;;;;;;;;;;;;5035519;28;20354;-79
2022/01/09 07:59:19;;;;;;;;;;;;;;;;;;5034410;28;19993;-81
2022/01/09 08:01:44;;;;;;;;;;;;;;;;;;5033689;28;19999;-80
2022/01/09 08:04:09;;;;;;;;;;;;;;;;;;5035164;28;20711;-81
2022/01/09 08:06:34;;;;;;;;;;;;;;;;;;5035291;28;19913;-82
2022/01/09 08:09:00;;;;;;;;;;;;;;;;;;5035358;28;19956;-82
2022/01/09 08:11:25;;;;;;;;;;;;;;;;;;5034331;28;20412;-82
2022/01/09 08:13:50;;;;;;;;;;;;;;;;;;5034255;28;20007;-82
2022/01/09 08:16:18;;;;;;;;;;;;;;;;;;5035575;28;20404;-81
2022/01/09 08:18:43;;;;;;;;;;;;;;;;;;5050449;28;19956;-81
2022/01/09 08:21:09;;;;;;;;;;;;;;;;;;5034181;28;20364;-82
2022/01/09 08:23:36;;;;;;;;;;;;;;;;;;5038568;28;19913;-81
2022/01/09 08:26:02;;;;;;;;;;;;;;;;;;5025185;28;20047;-80
2022/01/09 08:28:27;;;;;;;;;;;;;;;;;;5032457;28;20016;-81
2022/01/09 08:30:52;;;;;;;;;;;;;;;;;;5034840;28;19921;-81
2022/01/09 08:33:24;;;;;;;;;;;;;;;;;;5034575;28;19924;-81
2022/01/09 08:35:49;;;;;;;;;;;;;;;;;;5034977;28;19920;-80
2022/01/09 08:38:14;;;;;;;;;;;;;;;;;;5034676;28;19988;-81
2022/01/09 08:40:39;;;;;;;;;;;;;;;;;;5034652;28;19917;-81
2022/01/09 08:43:07;;;;;;;;;;;;;;;;;;5033624;28;19913;-81
2022/01/09 08:45:32;;;;;;;;;;;;;;;;;;5034609;28;20230;-82
2022/01/09 08:47:57;;;;;;;;;;;;;;;;;;5033589;28;19921;-82
2022/01/09 08:50:23;;;;;;;;;;;;;;;;;;5050722;28;19924;-83
2022/01/09 08:52:48;;;;;;;;;;;;;;;;;;5034215;28;19979;-81
2022/01/09 08:55:13;;;;;;;;;;;;;;;;;;5034613;28;19913;-80
2022/01/09 08:57:39;;;;;;;;;;;;;;;;;;5034391;28;19917;-81
2022/01/09 09:00:04;;;;;;;;;;;;;;;;;;5034357;28;20000;-81
2022/01/09 09:02:32;;;;;;;;;;;;;;;;;;5034815;28;20349;-82
2022/01/09 09:04:58;;;;;;;;;;;;;;;;;;5034758;28;20058;-81
2022/01/09 09:07:25;;;;;;;;;;;;;;;;;;5033272;28;19935;-80
2022/01/09 09:09:51;;;;;;;;;;;;;;;;;;5014821;28;19949;-81
2022/01/09 09:12:17;;;;;;;;;;;;;;;;;;5030537;28;20055;-82
2022/01/09 09:14:42;;;;;;;;;;;;;;;;;;5014813;28;19914;-82
2022/01/09 09:17:07;;;;;;;;;;;;;;;;;;5014594;28;20259;-81
2022/01/09 09:19:33;;;;;;;;;;;;;;;;;;5030207;28;20024;-82
2022/01/09 09:21:58;;;;;;;;;;;;;;;;;;5037669;28;19921;-82
2022/01/09 09:24:23;;;;;;;;;;;;;;;;;;5014456;28;19960;-82
2022/01/09 09:26:51;;;;;;;;;;;;;;;;;;5012157;28;19917;-81
2022/01/09 09:29:16;;;;;;;;;;;;;;;;;;5038256;28;19960;-81
2022/01/09 09:31:41;;;;;;;;;;;;;;;;;;5038251;28;20342;-81
2022/01/09 09:34:08;;;;;;;;;;;;;;;;;;5037014;28;19924;-82
2022/01/09 09:36:34;;;;;;;;;;;;;;;;;;5038025;28;19928;-82
2022/01/09 09:38:59;;;;;;;;;;;;;;;;;;5038147;28;20323;-80
2022/01/09 09:41:24;;;;;;;;;;;;;;;;;;5038005;28;19979;-83
2022/01/09 09:43:50;;;;;;;;;;;;;;;;;;5039597;28;19913;-81
2022/01/09 09:46:15;;;;;;;;;;;;;;;;;;5038004;28;20025;-82
2022/01/09 09:48:41;;;;;;;;;;;;;;;;;;5037438;28;20314;-83
2022/01/09 09:51:06;;;;;;;;;;;;;;;;;;5038978;28;19913;-83
2022/01/09 09:53:31;;;;;;;;;;;;;;;;;;5038195;28;19923;-81
2022/01/09 09:55:56;;;;;;;;;;;;;;;;;;5037839;28;19963;-82
2022/01/09 09:58:22;;;;;;;;;;;;;;;;;;5037667;28;19913;-83
2022/01/09 10:00:51;;;;;;;;;;;;;;;;;;5037645;28;19982;-82
2022/01/09 10:03:16;;;;;;;;;;;;;;;;;;5037330;28;20007;-83
2022/01/09 10:05:41;;;;;;;;;;;;;;;;;;5053177;28;19971;-81
2022/01/09 10:08:11;;;;;;;;;;;;;;;;;;5025244;28;20013;-82
2022/01/09 10:10:39;;;;;;;;;;;;;;;;;;5017002;28;19944;-82
2022/01/09 10:13:04;;;;;;;;;;;;;;;;;;5027585;28;20023;-83
2022/01/09 10:15:30;;;;;;;;;;;;;;;;;;5037233;28;20023;-82
2022/01/09 10:17:55;;;;;;;;;;;;;;;;;;5036290;28;19951;-82
2022/01/09 10:20:21;;;;;;;;;;;;;;;;;;5036475;28;19929;-84
2022/01/09 10:22:50;;;;;;;;;;;;;;;;;;5052354;28;19917;-83
2022/01/09 10:25:21;;;;;;;;;;;;;;;;;;5036651;28;20359;-81
2022/01/09 10:27:46;;;;;;;;;;;;;;;;;;5050679;28;20358;-83
2022/01/09 10:30:12;;;;;;;;;;;;;;;;;;5053065;28;19923;-84
2022/01/09 10:32:37;;;;;;;;;;;;;;;;;;5037475;28;19924;-84
2022/01/09 10:35:07;;;;;;;;;;;;;;;;;;5037224;28;19913;-83
2022/01/09 10:37:33;;;;;;;;;;;;;;;;;;5035967;28;19975;-83
2022/01/09 10:40:00;;;;;;;;;;;;;;;;;;5037311;28;19913;-83
2022/01/09 10:42:25;;;;;;;;;;;;;;;;;;5052575;28;19917;-84
2022/01/09 10:44:50;;;;;;;;;;;;;;;;;;5037271;28;19923;-84
2022/01/09 10:47:18;;;;;;;;;;;;;;;;;;5037052;28;19952;-83
2022/01/09 10:49:43;;;;;;;;;;;;;;;;;;5052553;28;19921;-84
2022/01/09 10:52:12;;;;;;;;;;;;;;;;;;5036777;28;19936;-82
2022/01/09 10:54:39;;;;;;;;;;;;;;;;;;5052554;28;19921;-83
2022/01/09 10:57:08;;;;;;;;;;;;;;;;;;5036460;28;19948;-83
2022/01/09 10:59:33;;;;;;;;;;;;;;;;;;5027191;28;20004;-80
2022/01/09 11:01:59;;;;;;;;;;;;;;;;;;5036269;28;20112;-83
2022/01/09 11:04:25;;;;;;;;;;;;;;;;;;5036058;28;19924;-83
2022/01/09 11:06:50;;;;;;;;;;;;;;;;;;5035716;28;19917;-84
2022/01/09 11:09:17;;;;;;;;;;;;;;;;;;5011748;28;19918;-85
2022/01/09 11:11:43;;;;;;;;;;;;;;;;;;5022602;28;19925;-84
2022/01/09 11:14:18;;;;;;;;;;;;;;;;;;5013953;28;19913;-84
2022/01/09 11:16:51;;;;;;;;;;;;;;;;;;5014124;28;20065;-83
2022/01/09 11:19:17;;;;;;;;;;;;;;;;;;5014180;28;19913;-83
2022/01/09 11:21:45;;;;;;;;;;;;;;;;;;4997870;28;20274;-82
2022/01/09 11:24:37;;;;;;;;;;;;;;;;;;5014286;28;19917;-81
2022/01/09 11:27:18;;;;;;;;;;;;;;;;;;4990489;28;20005;-83
2022/01/09 11:29:43;;;;;;;;;;;;;;;;;;5013318;28;19913;-84
2022/01/09 11:32:26;;;;;;;;;;;;;;;;;;5013239;28;19914;-83
2022/01/09 11:34:54;;;;;;;;;;;;;;;;;;5022672;28;19940;-82
2022/01/09 11:37:27;;;;;;;;;;;;;;;;;;5015253;28;19914;-84
2022/01/09 11:40:01;;;;;;;;;;;;;;;;;;5027069;28;19913;-82
2022/01/09 11:42:26;;;;;;;;;;;;;;;;;;5050358;28;19928;-82
2022/01/09 11:44:57;;;;;;;;;;;;;;;;;;5050901;28;19913;-82
2022/01/09 11:47:25;;;;;;;;;;;;;;;;;;5057463;28;19909;-81
2022/01/09 11:50:18;;;;;;;;;;;;;;;;;;5050482;28;19917;-82
2022/01/09 11:53:01;;;;;;;;;;;;;;;;;;5045645;28;21413;-83
2022/01/09 11:55:55;;;;;;;;;;;;;;;;;;5035884;28;19976;-82
2022/01/09 11:58:22;;;;;;;;;;;;;;;;;;5026017;28;19917;-85
2022/01/09 12:00:47;;;;;;;;;;;;;;;;;;5049883;28;19921;-85
2022/01/09 12:03:39;;;;;;;;;;;;;;;;;;5060987;28;19960;-83
2022/01/09 12:06:12;;;;;;;;;;;;;;;;;;5043240;28;19978;-83
2022/01/09 12:09:00;;;;;;;;;;;;;;;;;;5033140;28;19925;-86
2022/01/09 12:11:52;;;;;;;;;;;;;;;;;;5034313;28;19917;-83
2022/01/09 12:14:42;;;;;;;;;;;;;;;;;;5016360;28;19952;-86
2022/01/09 12:17:26;;;;;;;;;;;;;;;;;;5034667;28;19917;-84
2022/01/09 12:20:13;;;;;;;;;;;;;;;;;;5035136;28;19978;-86
2022/01/09 12:23:00;;;;;;;;;;;;;;;;;;;;;
2022/01/09 12:25:18;;;;;;;;;;;;;;;;;;5032755;28;20365;-87
2022/01/09 12:27:45;;;;;;;;;;;;;;;;;;5036689;28;19944;-86
2022/01/09 12:30:32;;;;;;;;;;;;;;;;;;5033769;28;19917;-87
2022/01/09 12:33:00;;;;;;;;;;;;;;;;;;5033864;28;20002;-87
2022/01/09 12:35:26;;;;;;;;;;;;;;;;;;5035290;28;19917;-88
2022/01/09 12:37:53;;;;;;;;;;;;;;;;;;5039335;28;19913;-87
2022/01/09 12:40:21;;;;;;;;;;;;;;;;;;5035791;28;19929;-88
2022/01/09 12:42:47;;;;;;;;;;;;;;;;;;5035061;28;19987;-84
2022/01/09 12:45:19;;;;;;;;;;;;;;;;;;5034246;28;19917;-82
2022/01/09 12:47:44;;;;;;;;;;;;;;;;;;5035862;28;20376;-84
2022/01/09 12:50:09;;;;;;;;;;;;;;;;;;5032076;28;19917;-86
2022/01/09 12:52:35;;;;;;;;;;;;;;;;;;5034289;28;19917;-84
2022/01/09 12:55:07;;;;;;;;;;;;;;;;;;5033731;28;19928;-85
2022/01/09 12:57:51;;;;;;;;;;;;;;;;;;5038981;28;20383;-87
2022/01/09 13:00:16;;;;;;;;;;;;;;;;;;5033514;28;19921;-84
2022/01/09 13:02:50;;;;;;;;;;;;;;;;;;5034608;28;19928;-85
2022/01/09 13:05:19;;;;;;;;;;;;;;;;;;5032809;28;20039;-81
2022/01/09 13:07:47;;;;;;;;;;;;;;;;;;5032453;28;20374;-82
2022/01/09 13:10:15;;;;;;;;;;;;;;;;;;5036898;28;19924;-86
2022/01/09 13:13:13;;;;;;;;;;;;;;;;;;5036333;28;19917;-86
2022/01/09 13:15:40;;;;;;;;;;;;;;;;;;5032354;28;20001;-84
2022/01/09 13:18:06;;;;;;;;;;;;;;;;;;5033608;28;19925;-82
2022/01/09 13:20:31;;;;;;;;;;;;;;;;;;5036205;28;20356;-85
2022/01/09 13:23:05;;;;;;;;;;;;;;;;;;5033565;28;21565;-85
2022/01/09 13:26:06;;;;;;;;;;;;;;;;;;5032821;28;20027;-86
2022/01/09 13:28:29;;;;;;;;;;;;;;;;;;5043885;28;19917;-89
2022/01/09 13:30:58;;;;;;;;;;;;;;;;;;5032772;28;20032;-88
2022/01/09 13:33:30;;;;;;;;;;;;;;;;;;5023484;28;19917;-91
2022/01/09 13:35:55;;;;;;;;;;;;;;;;;;5032886;28;20413;-89
2022/01/09 13:38:30;;;;;;;;;;;;;;;;;;5028092;28;19984;-89
2022/01/09 13:40:56;;;;;;;;;;;;;;;;;;5023212;28;20342;-89
2022/01/09 13:43:21;;;;;;;;;;;;;;;;;;5049182;28;19928;-86
2022/01/09 13:45:53;;;;;;;;;;;;;;;;;;5033828;28;20047;-85
2022/01/09 13:48:21;;;;;;;;;;;;;;;;;;5030230;28;19925;-87
2022/01/09 13:50:46;;;;;;;;;;;;;;;;;;5035662;28;19952;-87
2022/01/09 13:53:15;;;;;;;;;;;;;;;;;;5033854;28;19967;-87
2022/01/09 13:55:40;;;;;;;;;;;;;;;;;;5051024;28;19917;-84
2022/01/09 13:58:15;;;;;;;;;;;;;;;;;;5032165;28;20325;-84
2022/01/09 14:00:41;;;;;;;;;;;;;;;;;;5031313;28;20306;-88
2022/01/09 14:03:07;;;;;;;;;;;;;;;;;;5027444;28;20406;-87
2022/01/09 14:05:44;;;;;;;;;;;;;;;;;;5027035;28;19925;-85
2022/01/09 14:08:10;;;;;;;;;;;;;;;;;;5035803;28;19917;-85
2022/01/09 14:10:40;;;;;;;;;;;;;;;;;;5031771;28;19913;-86
2022/01/09 14:13:11;;;;;;;;;;;;;;;;;;5038773;28;19913;-82
2022/01/09 14:15:38;;;;;;;;;;;;;;;;;;5032867;28;19917;-87
2022/01/09 14:18:06;;;;;;;;;;;;;;;;;;5030756;28;19917;-86
2022/01/09 14:20:31;;;;;;;;;;;;;;;;;;5055155;28;19925;-87
2022/01/09 14:23:15;;;;;;;;;;;;;;;;;;5037616;28;20341;-86
2022/01/09 14:25:45;;;;;;;;;;;;;;;;;;5020442;28;19976;-83
2022/01/09 14:28:25;;;;;;;;;;;;;;;;;;5012101;28;20525;-85
2022/01/09 14:30:52;;;;;;;;;;;;;;;;;;5025988;28;19921;-84
2022/01/09 14:33:20;;;;;;;;;;;;;;;;;;5022436;28;19949;-81
2022/01/09 14:38:55;;;;;;;;;;;;;;;;;;5023478;28;19928;-86
2022/01/09 14:41:30;;;;;;;;;;;;;;;;;;5009979;28;19925;-84
2022/01/09 14:43:59;;;;;;;;;;;;;;;;;;4991514;28;19935;-86
2022/01/09 14:46:24;;;;;;;;;;;;;;;;;;5018019;28;19928;-83
2022/01/09 14:48:50;;;;;;;;;;;;;;;;;;5003711;28;20227;-84
2022/01/09 14:51:21;;;;;;;;;;;;;;;;;;5017771;28;20450;-83
2022/01/09 14:53:49;;;;;;;;;;;;;;;;;;5018433;28;19925;-84
2022/01/09 14:56:38;;;;;;;;;;;;;;;;;;4999471;28;19929;-86
2022/01/09 14:59:05;;;;;;;;;;;;;;;;;;5018591;28;19917;-84
2022/01/09 15:01:39;;;;;;;;;;;;;;;;;;5000080;28;19935;-83
2022/01/09 15:04:17;;;;;;;;;;;;;;;;;;5017883;28;19926;-82
2022/01/09 15:06:43;;;;;;;;;;;;;;;;;;5015667;28;20379;-88
2022/01/09 15:09:08;;;;;;;;;;;;;;;;;;5000839;28;19931;-85
2022/01/09 15:11:35;;;;;;;;;;;;;;;;;;4984224;28;19924;-80
2022/01/09 15:14:03;;;;;;;;;;;;;;;;;;5015015;28;20465;-84
2022/01/09 15:16:28;;;;;;;;;;;;;;;;;;5000425;28;19917;-82
2022/01/09 15:18:57;;;;;;;;;;;;;;;;;;5018748;28;19917;-80
2022/01/09 15:21:23;;;;;;;;;;;;;;;;;;5001753;28;20274;-84
2022/01/09 15:23:48;;;;;;;;;;;;;;;;;;4999859;28;19928;-89
2022/01/09 15:26:20;;;;;;;;;;;;;;;;;;5022111;28;20376;-84
2022/01/09 15:28:54;;;;;;;;;;;;;;;;;;5035424;28;20256;-85
2022/01/09 15:31:19;;;;;;;;;;;;;;;;;;5036131;28;19952;-83
2022/01/09 15:33:45;;;;;;;;;;;;;;;;;;5017846;28;20334;-83
2022/01/09 15:36:10;;;;;;;;;;;;;;;;;;5037831;28;19948;-80
2022/01/09 15:38:35;;;;;;;;;;;;;;;;;;5031530;28;19917;-81
2022/01/09 15:41:32;;;;;;;;;;;;;;;;;;5018930;28;20010;-83
2022/01/09 15:43:58;;;;;;;;;;;;;;;;;;5033323;28;19924;-87
2022/01/09 15:46:42;;;;;;;;;;;;;;;;;;5034929;28;19932;-85
2022/01/09 15:49:33;;;;;;;;;;;;;;;;;;5032107;28;19917;-85
2022/01/09 15:52:06;;;;;;;;;;;;;;;;;;5028220;28;19927;-83
2022/01/09 15:58:04;;;;;;;;;;;;;;;;;;4971382;28;20453;-83
2022/01/09 16:01:08;;;;;;;;;;;;;;;;;;5009119;28;19979;-84
2022/01/09 16:03:34;;;;;;;;;;;;;;;;;;4949075;28;20013;-83
2022/01/09 16:06:10;;;;;;;;;;;;;;;;;;4948828;28;20001;-85
2022/01/09 16:08:36;;;;;;;;;;;;;;;;;;4949297;28;19944;-82
2022/01/09 16:11:16;;;;;;;;;;;;;;;;;;4951360;28;19918;-83
2022/01/09 16:14:09;;;;;;;;;;;;;;;;;;4936156;29;20315;-82
2022/01/09 16:19:50;;;;;;;;;;;;;;;;;;4948083;28;19926;-85
2022/01/09 16:22:16;;;;;;;;;;;;;;;;;;4949054;28;19933;-81
2022/01/09 16:24:47;;;;;;;;;;;;;;;;;;4932827;29;19922;-81
2022/01/09 16:27:15;;;;;;;;;;;;;;;;;;4942407;28;19918;-82
2022/01/09 16:29:41;;;;;;;;;;;;;;;;;;4968501;28;19926;-84
2022/01/09 16:32:09;;;;;;;;;;;;;;;;;;5022403;28;19928;-87
2022/01/09 16:34:34;;;;;;;;;;;;;;;;;;5031695;28;20292;-83
2022/01/09 16:37:05;;;;;;;;;;;;;;;;;;5032543;28;19917;-82
2022/01/09 16:39:33;;;;;;;;;;;;;;;;;;5045212;28;20028;-83
2022/01/09 16:41:58;;;;;;;;;;;;;;;;;;5033564;28;19964;-84
2022/01/09 16:44:24;;;;;;;;;;;;;;;;;;5016330;28;20011;-84
2022/01/09 16:46:49;;;;;;;;;;;;;;;;;;5049399;28;20548;-88
2022/01/09 16:49:43;;;;;;;;;;;;;;;;;;5037137;28;20373;-89
2022/01/09 16:52:09;;;;;;;;;;;;;;;;;;5034255;28;19952;-83
2022/01/09 16:54:34;;;;;;;;;;;;;;;;;;5033030;28;19952;-81
2022/01/09 16:57:00;;;;;;;;;;;;;;;;;;5014949;28;19917;-82
2022/01/09 16:59:37;;;;;;;;;;;;;;;;;;5033267;28;19917;-86
2022/01/09 17:02:11;;;;;;;;;;;;;;;;;;5029916;28;20257;-86